Time;durP1;ratioP1;P1;durP2;ratioP2;P2;SDS_P1;SDS_P2;PMS_P1;PMS_P2;Temp;Humidity;BMP_temperature;BMP_pressure;BME280_temperature;BME280_humidity;BME280_pressure;Samples;Min_cycle;Max_cycle;Signal;HPM_P1;HPM_P2
2023/03/31 00:02:12;;;;;;;10.07;7.22;;;1.60;99.90;;;;;;4889713;29;20063;-61
2023/03/31 00:04:51;;;;;;;11.65;7.15;;;1.60;99.90;;;;;;4888594;29;20410;-63
2023/03/31 00:07:23;;;;;;;11.32;8.30;;;1.60;99.90;;;;;;4888544;29;20048;-70
2023/03/31 00:09:53;;;;;;;10.50;7.53;;;1.70;99.90;;;;;;4890560;29;20130;-61
2023/03/31 00:12:36;;;;;;;14.13;9.18;;;1.70;99.90;;;;;;4884284;29;20172;-65
2023/03/31 00:15:03;;;;;;;10.98;8.35;;;1.70;99.90;;;;;;4892542;29;20206;-67
2023/03/31 00:17:32;;;;;;;9.77;8.38;;;1.70;99.90;;;;;;4888780;29;20104;-62
2023/03/31 00:20:02;;;;;;;9.63;7.22;;;1.70;99.90;;;;;;4892108;29;20059;-70
2023/03/31 00:22:29;;;;;;;15.55;7.43;;;1.70;99.90;;;;;;4890328;29;20566;-63
2023/03/31 00:24:56;;;;;;;12.50;10.13;;;1.70;99.90;;;;;;4890427;29;20506;-66
2023/03/31 00:27:23;;;;;;;13.90;9.50;;;1.70;99.90;;;;;;4888498;29;20088;-65
2023/03/31 00:29:51;;;;;;;13.73;8.13;;;1.70;99.90;;;;;;4888097;29;20064;-65
2023/03/31 00:32:18;;;;;;;16.30;9.90;;;1.70;99.90;;;;;;4889409;29;20510;-67
2023/03/31 00:34:45;;;;;;;11.93;7.75;;;1.70;99.90;;;;;;4884975;29;20057;-68
2023/03/31 00:37:13;;;;;;;12.98;8.20;;;1.70;99.90;;;;;;4887306;29;20485;-62
2023/03/31 00:39:42;;;;;;;13.05;8.43;;;1.70;99.90;;;;;;4889394;29;20111;-63
2023/03/31 00:42:11;;;;;;;11.77;8.35;;;1.70;99.90;;;;;;4887453;29;20053;-63
2023/03/31 00:45:14;;;;;;;12.02;7.10;;;1.70;99.90;;;;;;4887517;29;20526;-64
2023/03/31 00:47:53;;;;;;;14.27;8.82;;;1.70;99.90;;;;;;4887462;29;20059;-63
2023/03/31 00:50:33;;;;;;;11.43;7.97;;;1.70;99.90;;;;;;4889549;29;20140;-69
2023/03/31 00:53:07;;;;;;;9.55;6.95;;;1.80;99.90;;;;;;4889638;29;20064;-65
2023/03/31 00:55:39;;;;;;;9.95;6.90;;;1.80;99.90;;;;;;4884038;29;20048;-63
2023/03/31 00:58:07;;;;;;;10.70;7.28;;;1.80;99.90;;;;;;4889922;29;20059;-69
2023/03/31 01:00:34;;;;;;;12.63;7.60;;;1.80;99.90;;;;;;4884299;29;20056;-65
2023/03/31 01:03:05;;;;;;;11.52;7.28;;;1.80;99.90;;;;;;4888028;29;20052;-68
2023/03/31 01:05:35;;;;;;;8.00;6.70;;;1.80;99.90;;;;;;4885656;29;20064;-70
2023/03/31 01:08:04;;;;;;;9.95;7.18;;;1.80;99.90;;;;;;4889124;29;20682;-68
2023/03/31 01:10:40;;;;;;;9.50;7.38;;;1.80;99.90;;;;;;4888911;29;20636;-66
2023/03/31 01:13:09;;;;;;;9.27;6.90;;;1.80;99.90;;;;;;4887058;29;20059;-64
2023/03/31 01:15:37;;;;;;;7.80;6.45;;;1.80;99.90;;;;;;4889287;29;20131;-70
2023/03/31 01:18:05;;;;;;;7.88;6.43;;;1.80;99.90;;;;;;4886872;29;20052;-66
2023/03/31 01:21:02;;;;;;;10.52;7.15;;;1.90;99.90;;;;;;4890838;29;20056;-64
2023/03/31 01:23:53;;;;;;;7.25;6.18;;;1.90;99.90;;;;;;4887753;29;20063;-64
2023/03/31 01:26:38;;;;;;;7.38;6.28;;;1.90;99.90;;;;;;4883740;29;20195;-63
2023/03/31 01:29:49;;;;;;;7.53;6.00;;;1.90;99.90;;;;;;4888939;29;20132;-64
2023/03/31 01:32:33;;;;;;;9.50;7.10;;;1.90;99.90;;;;;;4873785;29;20132;-69
2023/03/31 01:35:10;;;;;;;7.35;6.60;;;1.90;99.90;;;;;;4890666;29;20076;-63
2023/03/31 01:37:37;;;;;;;9.50;6.35;;;1.90;99.90;;;;;;4886751;29;20048;-65
2023/03/31 01:40:09;;;;;;;12.32;6.28;;;1.90;99.90;;;;;;4876104;29;20542;-67
2023/03/31 01:42:43;;;;;;;7.32;5.70;;;1.90;99.90;;;;;;4885360;29;20056;-69
2023/03/31 01:45:18;;;;;;;8.27;6.43;;;1.90;99.90;;;;;;4890081;29;20059;-68
2023/03/31 01:48:08;;;;;;;7.88;5.75;;;1.90;99.90;;;;;;4864868;29;20045;-65
2023/03/31 01:50:44;;;;;;;8.75;6.50;;;1.90;99.90;;;;;;4886764;29;20056;-67
2023/03/31 01:53:27;;;;;;;6.93;5.90;;;1.90;99.90;;;;;;4891540;29;20127;-73
2023/03/31 01:56:17;;;;;;;6.80;4.80;;;1.90;99.90;;;;;;4886597;29;20418;-66
2023/03/31 01:59:12;;;;;;;5.85;5.20;;;2.00;99.90;;;;;;4858856;29;20103;-66
2023/03/31 02:01:55;;;;;;;9.38;6.05;;;2.00;99.90;;;;;;4886145;29;20143;-63
2023/03/31 02:04:45;;;;;;;7.60;6.20;;;2.00;99.90;;;;;;4884560;29;20059;-70
2023/03/31 02:07:17;;;;;;;9.55;6.93;;;2.00;99.90;;;;;;4874668;29;20865;-64
2023/03/31 02:09:54;;;;;;;8.40;4.97;;;2.00;99.90;;;;;;4889025;29;20056;-65
2023/03/31 02:12:25;;;;;;;7.15;6.25;;;2.00;99.90;;;;;;4889858;29;20127;-67
2023/03/31 02:14:53;;;;;;;;;;;2.00;99.90;;;;;;4885402;29;20696;-66
2023/03/31 02:17:31;;;;;;;7.10;5.60;;;2.00;99.90;;;;;;4869385;29;19931;-69
2023/03/31 02:20:08;;;;;;;7.60;5.60;;;1.90;99.90;;;;;;4884557;29;20052;-63
2023/03/31 02:22:40;;;;;;;6.82;5.40;;;2.00;99.90;;;;;;4886913;29;20706;-69
2023/03/31 02:25:11;;;;;;;8.25;6.03;;;2.00;99.90;;;;;;4887244;29;20099;-69
2023/03/31 02:27:41;;;;;;;6.00;5.05;;;2.00;99.90;;;;;;4872361;29;20055;-64
2023/03/31 02:30:09;;;;;;;;;;;2.00;99.90;;;;;;4887721;29;20721;-63
2023/03/31 02:32:41;;;;;;;10.40;6.65;;;2.00;99.90;;;;;;4891416;29;19935;-64
2023/03/31 02:35:16;;;;;;;10.77;8.15;;;2.00;99.90;;;;;;4890257;29;20456;-71
2023/03/31 02:37:44;;;;;;;9.18;6.85;;;2.00;99.90;;;;;;4886056;29;20426;-67
2023/03/31 02:40:17;;;;;;;8.73;6.63;;;2.00;99.90;;;;;;4887118;29;20590;-64
2023/03/31 02:42:44;;;;;;;9.02;6.22;;;2.00;99.90;;;;;;4891082;29;20052;-64
2023/03/31 02:45:35;;;;;;;8.45;6.72;;;2.00;99.90;;;;;;4893306;29;20522;-71
2023/03/31 02:48:09;;;;;;;9.13;6.97;;;2.00;99.90;;;;;;4876346;29;20465;-63
2023/03/31 02:51:02;;;;;;;9.55;7.50;;;2.00;99.90;;;;;;4885614;29;20689;-67
2023/03/31 02:54:00;;;;;;;11.18;7.95;;;2.00;99.90;;;;;;4885445;29;20085;-72
2023/03/31 02:57:22;;;;;;;9.88;8.05;;;2.00;99.90;;;;;;4885842;29;20219;-66
2023/03/31 02:59:51;;;;;;;14.15;8.85;;;2.00;99.90;;;;;;4852792;29;21290;-67
2023/03/31 03:02:24;;;;;;;13.03;8.37;;;2.00;99.90;;;;;;4889578;29;20092;-66
2023/03/31 03:05:03;;;;;;;13.75;8.95;;;2.00;99.90;;;;;;4873950;29;20284;-64
2023/03/31 03:07:40;;;;;;;12.85;8.80;;;2.00;99.90;;;;;;4883458;29;20061;-68
2023/03/31 03:10:10;;;;;;;11.15;7.97;;;2.00;99.90;;;;;;4890925;29;20143;-68
2023/03/31 03:12:48;;;;;;;15.50;8.05;;;2.00;99.90;;;;;;4893575;29;20500;-65
2023/03/31 03:15:31;;;;;;;11.20;7.65;;;2.10;99.90;;;;;;4886286;29;20049;-65
2023/03/31 03:17:58;;;;;;;10.95;7.93;;;2.10;99.90;;;;;;4888099;29;20084;-64
2023/03/31 03:20:25;;;;;;;11.85;7.75;;;2.10;99.90;;;;;;4891812;29;20348;-71
2023/03/31 03:22:52;;;;;;;9.75;7.88;;;2.10;99.90;;;;;;4897792;29;20045;-68
2023/03/31 03:25:19;;;;;;;11.50;8.05;;;2.10;99.90;;;;;;4887312;29;20052;-71
2023/03/31 03:27:46;;;;;;;13.40;9.25;;;2.10;99.90;;;;;;4894776;29;20664;-64
2023/03/31 03:30:13;;;;;;;13.13;8.88;;;2.10;99.90;;;;;;4888597;29;20456;-69
2023/03/31 03:32:40;;;;;;;10.43;8.20;;;2.10;99.90;;;;;;4891999;29;20063;-66
2023/03/31 03:35:08;;;;;;;9.77;7.88;;;2.10;99.90;;;;;;4890979;29;20402;-67
2023/03/31 03:37:35;;;;;;;9.00;7.03;;;2.10;99.90;;;;;;4888703;29;20060;-72
2023/03/31 03:40:04;;;;;;;9.02;7.13;;;2.20;99.90;;;;;;4888949;29;20045;-67
2023/03/31 03:42:32;;;;;;;8.07;6.57;;;2.10;99.90;;;;;;4892373;29;20084;-67
2023/03/31 03:45:00;;;;;;;8.80;7.03;;;2.20;99.90;;;;;;4890542;29;20602;-72
2023/03/31 03:47:27;;;;;;;9.57;7.13;;;2.20;99.90;;;;;;4882081;29;20067;-64
2023/03/31 03:49:54;;;;;;;9.77;7.45;;;2.20;99.90;;;;;;4890472;29;20087;-66
2023/03/31 03:52:21;;;;;;;12.23;7.50;;;2.20;99.90;;;;;;4889311;29;20121;-70
2023/03/31 03:54:48;;;;;;;9.30;5.70;;;2.30;99.90;;;;;;4887631;29;20049;-71
2023/03/31 03:57:15;;;;;;;7.72;6.00;;;2.20;99.90;;;;;;4888218;29;20079;-69
2023/03/31 03:59:42;;;;;;;8.85;6.63;;;2.20;99.90;;;;;;4890277;29;20051;-69
2023/03/31 04:02:09;;;;;;;8.25;6.15;;;2.20;99.90;;;;;;4890154;29;20080;-63
2023/03/31 04:04:36;;;;;;;8.77;6.63;;;2.20;99.90;;;;;;4892598;29;20467;-68
2023/03/31 04:07:03;;;;;;;8.80;6.20;;;2.20;99.90;;;;;;4889652;29;20089;-72
2023/03/31 04:09:30;;;;;;;8.45;6.00;;;2.20;99.90;;;;;;4884349;29;20063;-66
2023/03/31 04:11:57;;;;;;;7.25;5.65;;;2.20;99.90;;;;;;4886155;29;20108;-68
2023/03/31 04:14:24;;;;;;;8.38;6.05;;;2.20;99.90;;;;;;4889348;29;20171;-67
2023/03/31 04:16:55;;;;;;;6.97;5.82;;;2.20;99.90;;;;;;4888093;29;20446;-63
2023/03/31 04:19:24;;;;;;;8.65;5.65;;;2.20;99.90;;;;;;4885746;29;20415;-67
2023/03/31 04:21:57;;;;;;;9.48;6.15;;;2.20;99.90;;;;;;4885833;29;20521;-64
2023/03/31 04:24:29;;;;;;;7.10;5.82;;;2.20;99.90;;;;;;4888768;29;20196;-65
2023/03/31 04:26:57;;;;;;;6.72;5.43;;;2.20;99.90;;;;;;4887546;29;20052;-67
2023/03/31 04:29:27;;;;;;;7.13;5.20;;;2.20;99.90;;;;;;4884467;29;20084;-71
2023/03/31 04:31:58;;;;;;;7.88;6.00;;;2.20;99.90;;;;;;4886310;29;20053;-67
2023/03/31 04:34:33;;;;;;;9.30;5.93;;;2.20;99.90;;;;;;4887776;29;20133;-74
2023/03/31 04:37:01;;;;;;;8.70;6.07;;;2.20;99.90;;;;;;4888853;29;20052;-64
2023/03/31 04:39:29;;;;;;;9.27;6.90;;;2.30;99.90;;;;;;4885010;29;20060;-64
2023/03/31 04:41:57;;;;;;;6.57;5.35;;;2.20;99.90;;;;;;4887804;29;20132;-66
2023/03/31 04:44:25;;;;;;;6.40;5.28;;;2.30;99.90;;;;;;4886932;29;20139;-68
2023/03/31 04:46:53;;;;;;;6.03;4.90;;;2.30;99.90;;;;;;4887094;29;20093;-69
2023/03/31 04:49:20;;;;;;;5.93;5.30;;;2.20;99.90;;;;;;4887097;29;20071;-71
2023/03/31 04:51:47;;;;;;;10.25;5.32;;;2.20;99.90;;;;;;4888489;29;20478;-66
2023/03/31 04:54:14;;;;;;;7.57;6.15;;;2.30;99.90;;;;;;4887967;29;20124;-66
2023/03/31 04:56:41;;;;;;;7.25;6.55;;;2.20;99.90;;;;;;4882684;29;20061;-68
2023/03/31 04:59:08;;;;;;;7.35;5.72;;;2.30;99.90;;;;;;4887657;29;20060;-71
2023/03/31 05:01:36;;;;;;;7.85;6.50;;;2.30;99.90;;;;;;4884555;29;20064;-63
2023/03/31 05:04:04;;;;;;;7.47;5.63;;;2.30;99.90;;;;;;4887827;29;20543;-64
2023/03/31 05:06:31;;;;;;;8.75;6.72;;;2.30;99.90;;;;;;4887430;29;20421;-65
2023/03/31 05:08:58;;;;;;;10.15;6.43;;;2.30;99.90;;;;;;4885087;29;20143;-66
2023/03/31 05:11:26;;;;;;;7.28;6.20;;;2.30;99.90;;;;;;4887226;29;20052;-64
2023/03/31 05:13:53;;;;;;;10.70;6.78;;;2.30;99.90;;;;;;4890042;29;20507;-64
2023/03/31 05:16:20;;;;;;;7.55;5.88;;;2.30;99.90;;;;;;4886016;29;20227;-64
2023/03/31 05:18:47;;;;;;;10.75;6.80;;;2.30;99.90;;;;;;4887612;29;20166;-63
2023/03/31 05:21:19;;;;;;;8.45;6.05;;;2.30;99.90;;;;;;4887195;29;20366;-65
2023/03/31 05:23:47;;;;;;;8.05;6.63;;;2.30;99.90;;;;;;4884949;29;20060;-67
2023/03/31 05:26:14;;;;;;;10.45;6.80;;;2.30;99.90;;;;;;4885476;29;20051;-63
2023/03/31 05:28:41;;;;;;;8.80;6.65;;;2.30;99.90;;;;;;4870014;29;20147;-65
2023/03/31 05:31:10;;;;;;;8.30;6.75;;;2.40;99.90;;;;;;4883881;29;20625;-66
2023/03/31 05:33:40;;;;;;;9.95;6.90;;;2.30;99.90;;;;;;4885333;29;20056;-62
2023/03/31 05:36:10;;;;;;;10.98;7.28;;;2.30;99.90;;;;;;4886074;29;20048;-63
2023/03/31 05:38:38;;;;;;;7.63;6.43;;;2.40;99.90;;;;;;4881699;29;20457;-66
2023/03/31 05:41:08;;;;;;;9.32;7.32;;;2.40;99.90;;;;;;4887512;29;20057;-64
2023/03/31 05:43:36;;;;;;;10.07;8.18;;;2.40;99.90;;;;;;4886323;29;20066;-63
2023/03/31 05:46:03;;;;;;;9.48;7.35;;;2.40;99.90;;;;;;4887084;29;20487;-66
2023/03/31 05:48:31;;;;;;;9.60;7.05;;;2.40;99.90;;;;;;4885541;29;20045;-66
2023/03/31 05:50:59;;;;;;;9.20;7.13;;;2.40;99.90;;;;;;4888213;29;20171;-65
2023/03/31 05:53:26;;;;;;;8.50;5.85;;;2.40;99.90;;;;;;4884319;29;20052;-70
2023/03/31 05:55:58;;;;;;;7.97;6.35;;;2.40;99.90;;;;;;4886772;29;20828;-64
2023/03/31 05:58:25;;;;;;;9.02;6.85;;;2.50;99.90;;;;;;4888521;29;20057;-63
2023/03/31 06:01:10;;;;;;;8.80;7.22;;;2.50;99.90;;;;;;4883387;29;20049;-65
2023/03/31 06:03:42;;;;;;;8.77;6.55;;;2.50;99.90;;;;;;4885406;29;20049;-64
2023/03/31 06:06:13;;;;;;;9.13;6.93;;;2.50;99.90;;;;;;4893062;29;20518;-65
2023/03/31 06:08:41;;;;;;;10.93;7.10;;;2.50;99.90;;;;;;4889805;29;20123;-63
2023/03/31 06:11:11;;;;;;;9.52;6.13;;;2.50;99.90;;;;;;4891195;29;20048;-63
2023/03/31 06:13:39;;;;;;;8.70;6.55;;;2.50;99.90;;;;;;4894481;29;20056;-65
2023/03/31 06:16:06;;;;;;;11.68;6.90;;;2.50;99.90;;;;;;4888720;29;20053;-67
2023/03/31 06:18:35;;;;;;;10.13;6.43;;;2.50;99.90;;;;;;4893470;29;20056;-70
2023/03/31 06:21:03;;;;;;;9.30;7.10;;;2.50;99.90;;;;;;4890229;29;20055;-69
2023/03/31 06:23:30;;;;;;;7.43;5.82;;;2.50;99.90;;;;;;4889547;29;20091;-67
2023/03/31 06:26:07;;;;;;;7.72;6.53;;;2.50;99.90;;;;;;4892369;29;20140;-65
2023/03/31 06:28:35;;;;;;;10.38;7.45;;;2.50;99.90;;;;;;4889357;29;20044;-65
2023/03/31 06:31:08;;;;;;;9.27;6.03;;;2.50;99.90;;;;;;4887769;29;20112;-65
2023/03/31 06:33:35;;;;;;;9.13;6.95;;;2.50;99.90;;;;;;4886122;29;20052;-63
2023/03/31 06:36:04;;;;;;;9.70;7.03;;;2.50;99.90;;;;;;4888418;29;20044;-66
2023/03/31 06:38:33;;;;;;;9.30;6.95;;;2.50;99.90;;;;;;4888324;29;20100;-63
2023/03/31 06:41:00;;;;;;;8.45;6.85;;;2.60;99.90;;;;;;4890942;29;20040;-68
2023/03/31 06:43:27;;;;;;;9.18;6.90;;;2.60;99.90;;;;;;4889727;29;20112;-64
2023/03/31 06:45:54;;;;;;;8.15;6.72;;;2.60;99.90;;;;;;4890303;29;20095;-65
2023/03/31 06:48:23;;;;;;;8.68;7.07;;;2.60;99.90;;;;;;4891094;29;20087;-68
2023/03/31 06:50:53;;;;;;;8.15;6.35;;;2.60;99.90;;;;;;4886420;29;20099;-61
2023/03/31 06:53:20;;;;;;;7.65;6.75;;;2.60;99.90;;;;;;4886286;29;22210;-65
2023/03/31 06:55:47;;;;;;;10.13;7.10;;;2.60;99.90;;;;;;4890866;29;20083;-67
2023/03/31 06:58:14;;;;;;;12.60;7.80;;;2.60;99.90;;;;;;4889078;29;20152;-68
2023/03/31 07:00:41;;;;;;;9.15;6.75;;;2.60;99.90;;;;;;4889828;29;20056;-65
2023/03/31 07:03:08;;;;;;;7.30;6.38;;;2.60;99.90;;;;;;4890606;29;20504;-66
2023/03/31 07:05:35;;;;;;;7.85;6.30;;;2.60;99.90;;;;;;4888386;29;20048;-69
2023/03/31 07:08:03;;;;;;;9.88;5.43;;;2.60;99.90;;;;;;4889037;29;20057;-63
2023/03/31 07:10:31;;;;;;;7.95;7.18;;;2.60;99.90;;;;;;4888040;29;20054;-65
2023/03/31 07:12:58;;;;;;;7.72;6.13;;;2.60;99.90;;;;;;4889081;29;20058;-65
2023/03/31 07:15:27;;;;;;;10.30;7.25;;;2.60;99.90;;;;;;4888170;29;20052;-64
2023/03/31 07:18:01;;;;;;;6.30;5.70;;;2.60;99.90;;;;;;4890056;29;20495;-64
2023/03/31 07:20:29;;;;;;;8.20;6.00;;;2.60;99.90;;;;;;4887834;29;20060;-70
2023/03/31 07:22:56;;;;;;;9.15;7.07;;;2.60;99.90;;;;;;4884762;29;20128;-64
2023/03/31 07:25:23;;;;;;;7.28;6.47;;;2.60;99.90;;;;;;4888994;29;20141;-67
2023/03/31 07:27:50;;;;;;;9.27;6.47;;;2.60;99.90;;;;;;4886775;29;20060;-67
2023/03/31 07:30:19;;;;;;;8.63;6.63;;;2.60;99.90;;;;;;4890472;29;20052;-64
2023/03/31 07:32:47;;;;;;;7.82;6.70;;;2.60;99.90;;;;;;4887993;29;20080;-70
2023/03/31 07:35:15;;;;;;;9.05;6.65;;;2.60;99.90;;;;;;4886807;29;20047;-71
2023/03/31 07:37:44;;;;;;;7.82;6.55;;;2.60;99.90;;;;;;4888280;29;20052;-63
2023/03/31 07:40:20;;;;;;;7.90;6.32;;;2.70;99.90;;;;;;4887365;29;20505;-67
2023/03/31 07:42:47;;;;;;;7.72;6.35;;;2.70;99.90;;;;;;4888125;29;20062;-65
2023/03/31 07:45:16;;;;;;;8.75;6.55;;;2.60;99.90;;;;;;4868537;29;20053;-64
2023/03/31 07:47:45;;;;;;;8.57;6.57;;;2.60;99.90;;;;;;4870923;29;20053;-67
2023/03/31 07:50:14;;;;;;;11.10;7.93;;;2.70;99.90;;;;;;4889516;29;20051;-67
2023/03/31 07:52:41;;;;;;;7.60;6.43;;;2.70;99.90;;;;;;4890938;29;20139;-64
2023/03/31 07:55:12;;;;;;;8.27;6.50;;;2.70;99.90;;;;;;4886697;29;20096;-68
2023/03/31 07:57:39;;;;;;;10.73;7.20;;;2.70;99.90;;;;;;4885591;29;20079;-64
2023/03/31 08:00:09;;;;;;;6.85;5.40;;;2.70;99.90;;;;;;4885204;29;20044;-64
2023/03/31 08:02:41;;;;;;;8.30;6.68;;;2.70;99.90;;;;;;4885069;29;20057;-68
2023/03/31 08:05:10;;;;;;;7.50;6.22;;;2.70;99.90;;;;;;4886075;29;20060;-63
2023/03/31 08:07:40;;;;;;;8.25;6.50;;;2.70;99.90;;;;;;4883160;29;20143;-63
2023/03/31 08:10:10;;;;;;;8.10;6.57;;;2.70;99.90;;;;;;4886621;29;20052;-63
2023/03/31 08:12:37;;;;;;;7.47;5.80;;;2.80;99.90;;;;;;4887209;29;20463;-65
2023/03/31 08:15:05;;;;;;;7.85;5.57;;;2.80;99.90;;;;;;4888376;29;20514;-66
2023/03/31 08:17:32;;;;;;;9.98;6.88;;;2.80;99.90;;;;;;4885831;29;20535;-67
2023/03/31 08:19:59;;;;;;;7.90;7.07;;;2.70;99.90;;;;;;4888898;29;20056;-65
2023/03/31 08:22:32;;;;;;;8.93;6.72;;;2.70;99.90;;;;;;4894493;29;20055;-66
2023/03/31 08:24:59;;;;;;;10.43;8.48;;;2.70;99.90;;;;;;4890884;29;20896;-66
2023/03/31 08:27:26;;;;;;;9.32;6.63;;;2.70;99.90;;;;;;4885492;29;20072;-66
2023/03/31 08:29:53;;;;;;;7.78;6.68;;;2.70;99.90;;;;;;4885340;29;20052;-68
2023/03/31 08:32:25;;;;;;;7.53;6.03;;;2.70;99.90;;;;;;4888673;29;20148;-65
2023/03/31 08:34:52;;;;;;;7.30;5.85;;;2.70;99.90;;;;;;4886945;29;20511;-65
2023/03/31 08:37:19;;;;;;;8.75;6.45;;;2.70;99.90;;;;;;4885368;29;20060;-65
2023/03/31 08:39:46;;;;;;;8.02;6.40;;;2.70;99.90;;;;;;4890979;29;20052;-65
2023/03/31 08:42:19;;;;;;;8.48;6.15;;;2.80;99.90;;;;;;4887991;29;20049;-62
2023/03/31 08:45:00;;;;;;;8.18;5.43;;;2.70;99.90;;;;;;4889009;29;20055;-64
2023/03/31 08:47:31;;;;;;;7.95;5.57;;;2.70;99.90;;;;;;4882931;29;20052;-66
2023/03/31 08:50:04;;;;;;;6.53;5.15;;;2.70;99.90;;;;;;4884597;29;20087;-63
2023/03/31 08:52:36;;;;;;;10.88;5.60;;;2.70;99.90;;;;;;4888983;29;20083;-64
2023/03/31 08:55:07;;;;;;;7.57;5.43;;;2.70;99.90;;;;;;4884864;29;20499;-66
2023/03/31 08:58:06;;;;;;;9.48;6.68;;;2.70;99.90;;;;;;4883272;29;20052;-64
2023/03/31 09:00:52;;;;;;;8.37;5.07;;;2.70;99.90;;;;;;4884522;29;20406;-64
2023/03/31 09:03:38;;;;;;;6.30;5.68;;;2.70;99.90;;;;;;4884009;29;20303;-67
2023/03/31 09:06:31;;;;;;;10.15;6.65;;;2.80;99.90;;;;;;4885244;29;20424;-63
2023/03/31 09:09:02;;;;;;;10.02;6.05;;;2.80;99.90;;;;;;4887323;29;20650;-63
2023/03/31 09:11:53;;;;;;;11.23;6.35;;;2.80;99.90;;;;;;4883673;29;20044;-67
2023/03/31 09:15:00;;;;;;;6.45;5.38;;;2.80;99.90;;;;;;4885535;29;20071;-68
2023/03/31 09:17:58;;;;;;;7.97;6.75;;;2.80;99.90;;;;;;4882450;29;20056;-65
2023/03/31 09:20:37;;;;;;;6.82;5.15;;;2.80;99.90;;;;;;4876414;29;20052;-63
2023/03/31 09:23:40;;;;;;;7.50;5.70;;;2.80;99.90;;;;;;4885512;29;20120;-68
2023/03/31 09:26:21;;;;;;;7.45;5.15;;;2.80;99.90;;;;;;4868525;29;20048;-63
2023/03/31 09:28:50;;;;;;;6.20;4.80;;;2.80;99.90;;;;;;4887634;29;20056;-64
2023/03/31 09:31:20;;;;;;;6.03;4.72;;;2.80;99.90;;;;;;4880993;29;20055;-64
2023/03/31 09:33:51;;;;;;;6.85;4.80;;;2.80;99.90;;;;;;4885979;29;20059;-65
2023/03/31 09:36:22;;;;;;;7.15;5.00;;;2.80;99.90;;;;;;4885112;29;20056;-65
2023/03/31 09:38:50;;;;;;;7.05;5.32;;;2.70;99.90;;;;;;4886481;29;20495;-64
2023/03/31 09:41:17;;;;;;;7.40;4.97;;;2.70;99.90;;;;;;4879813;29;20063;-64
2023/03/31 09:43:46;;;;;;;4.97;3.90;;;2.70;99.90;;;;;;4886450;29;20495;-63
2023/03/31 09:46:29;;;;;;;5.82;4.35;;;2.70;99.90;;;;;;4885036;29;20062;-65
2023/03/31 09:49:16;;;;;;;4.93;4.20;;;2.70;99.90;;;;;;4882684;29;20380;-62
2023/03/31 09:51:47;;;;;;;5.53;3.20;;;2.70;99.90;;;;;;4884039;29;20526;-64
2023/03/31 09:54:46;;;;;;;4.88;3.95;;;2.60;99.90;;;;;;4885428;29;20385;-63
2023/03/31 09:57:32;;;;;;;3.72;2.92;;;2.70;99.90;;;;;;4884334;29;20056;-63
2023/03/31 10:00:15;;;;;;;4.07;3.05;;;2.70;99.90;;;;;;4884590;29;20052;-64
2023/03/31 10:02:44;;;;;;;3.35;2.53;;;2.60;99.90;;;;;;4881257;29;20053;-66
2023/03/31 10:05:48;;;;;;;2.90;2.60;;;2.60;99.90;;;;;;4886061;29;20566;-64
2023/03/31 10:08:29;;;;;;;3.00;2.33;;;2.60;99.90;;;;;;4884184;29;20136;-66
2023/03/31 10:11:06;;;;;;;3.47;2.58;;;2.60;99.90;;;;;;4885141;29;20055;-67
2023/03/31 10:13:58;;;;;;;3.25;2.95;;;2.60;99.90;;;;;;4885123;29;20467;-65
2023/03/31 10:16:33;;;;;;;3.55;2.85;;;2.50;99.90;;;;;;4888974;29;20570;-63
2023/03/31 10:19:25;;;;;;;3.60;2.72;;;2.50;99.90;;;;;;4883906;29;20044;-65
2023/03/31 10:22:35;;;;;;;2.78;2.15;;;2.50;99.90;;;;;;4883050;29;20164;-68
2023/03/31 10:25:28;;;;;;;4.22;3.25;;;2.40;99.90;;;;;;4885601;29;20053;-62
2023/03/31 10:27:56;;;;;;;3.28;2.58;;;2.40;99.90;;;;;;4881332;29;20088;-62
2023/03/31 10:30:34;;;;;;;3.30;2.65;;;2.30;99.90;;;;;;4886574;29;20053;-65
2023/03/31 10:33:06;;;;;;;3.20;2.22;;;2.20;99.90;;;;;;4886305;29;20525;-64
2023/03/31 10:35:49;;;;;;;4.47;3.13;;;2.20;99.90;;;;;;4880896;29;20045;-65
2023/03/31 10:38:25;;;;;;;7.03;3.67;;;2.10;99.90;;;;;;4884844;29;20471;-64
2023/03/31 10:40:55;;;;;;;6.90;3.00;;;2.10;99.90;;;;;;4886353;29;20108;-64
2023/03/31 10:43:34;;;;;;;3.45;2.92;;;2.10;99.90;;;;;;4883649;29;20052;-65
2023/03/31 10:46:03;;;;;;;3.40;2.80;;;2.00;99.90;;;;;;4886010;29;20258;-64
2023/03/31 10:48:39;;;;;;;3.28;2.70;;;2.00;99.90;;;;;;4885608;29;20049;-65
2023/03/31 10:51:19;;;;;;;3.47;2.92;;;2.00;99.90;;;;;;4887113;29;20048;-62
2023/03/31 10:53:48;;;;;;;3.65;2.83;;;1.90;99.90;;;;;;4883575;29;20048;-63
2023/03/31 10:56:46;;;;;;;4.00;2.42;;;1.90;99.90;;;;;;4886686;29;20191;-63
2023/03/31 10:59:45;;;;;;;2.38;2.15;;;1.90;99.90;;;;;;4887539;29;20051;-63
2023/03/31 11:02:30;;;;;;;2.97;2.35;;;1.90;99.90;;;;;;4886030;29;20570;-69
2023/03/31 11:05:12;;;;;;;3.80;3.13;;;1.90;99.90;;;;;;4871681;29;20064;-65
2023/03/31 11:07:52;;;;;;;3.05;2.40;;;2.00;99.90;;;;;;4883463;29;20052;-65
2023/03/31 11:10:53;;;;;;;3.05;2.53;;;2.00;99.90;;;;;;4887375;29;20045;-66
2023/03/31 11:13:57;;;;;;;3.97;2.92;;;2.00;99.90;;;;;;4875097;29;20063;-68
2023/03/31 11:16:35;;;;;;;3.53;3.08;;;1.90;99.90;;;;;;4881075;29;20765;-68
2023/03/31 11:19:20;;;;;;;3.45;2.78;;;2.00;99.90;;;;;;4888373;29;20049;-64
2023/03/31 11:22:05;;;;;;;3.60;2.95;;;2.00;99.90;;;;;;4887137;29;20049;-65
2023/03/31 11:24:35;;;;;;;3.33;2.60;;;2.00;99.90;;;;;;4889026;29;20079;-69
2023/03/31 11:27:29;;;;;;;4.10;3.22;;;2.00;99.90;;;;;;4887724;29;20049;-64
2023/03/31 11:30:09;;;;;;;2.95;2.65;;;2.00;99.90;;;;;;4886316;29;20048;-61
2023/03/31 11:32:58;;;;;;;3.65;2.92;;;2.10;99.90;;;;;;4885595;29;20156;-62
2023/03/31 11:35:53;;;;;;;6.15;3.33;;;2.00;99.90;;;;;;4886581;29;20056;-66
2023/03/31 11:38:29;;;;;;;8.30;2.95;;;2.00;99.90;;;;;;4887017;29;20048;-62
2023/03/31 11:41:20;;;;;;;3.05;2.58;;;2.00;99.90;;;;;;4889079;29;20144;-62
2023/03/31 11:44:01;;;;;;;3.22;2.92;;;2.00;99.90;;;;;;4887034;29;20163;-63
2023/03/31 11:46:38;;;;;;;3.28;2.95;;;2.00;99.90;;;;;;4883180;29;20473;-66
2023/03/31 11:49:16;;;;;;;3.90;2.33;;;2.00;99.90;;;;;;4886273;29;20072;-63
2023/03/31 11:52:14;;;;;;;2.28;2.05;;;2.00;99.90;;;;;;4880558;29;20277;-66
2023/03/31 11:55:16;;;;;;;3.30;2.13;;;2.00;99.90;;;;;;4880643;29;20052;-62
2023/03/31 11:57:58;;;;;;;2.50;2.22;;;1.90;99.90;;;;;;4883846;29;20066;-64
2023/03/31 12:00:37;;;;;;;2.45;1.85;;;1.90;99.90;;;;;;4887419;29;20147;-66
2023/03/31 12:03:18;;;;;;;3.03;2.63;;;1.90;99.90;;;;;;4889211;29;20060;-63
2023/03/31 12:05:52;;;;;;;3.47;2.70;;;2.00;99.90;;;;;;4882502;29;20108;-65
2023/03/31 12:08:40;;;;;;;2.78;2.30;;;1.90;99.90;;;;;;4886844;29;20057;-67
2023/03/31 12:11:15;;;;;;;3.15;2.38;;;1.90;99.90;;;;;;4885055;29;20139;-64
2023/03/31 12:13:55;;;;;;;3.30;2.78;;;1.90;99.90;;;;;;4884970;29;20051;-63
2023/03/31 12:16:38;;;;;;;3.17;2.22;;;1.90;99.90;;;;;;4884759;29;20522;-67
2023/03/31 12:19:23;;;;;;;2.42;2.08;;;2.00;99.90;;;;;;4886582;29;20071;-66
2023/03/31 12:22:14;;;;;;;1.63;1.52;;;2.00;99.90;;;;;;4883385;29;20059;-65
2023/03/31 12:24:41;;;;;;;3.05;1.65;;;2.00;99.90;;;;;;4886755;29;20431;-62
2023/03/31 12:27:12;;;;;;;1.77;1.60;;;1.90;99.90;;;;;;4884104;29;20055;-64
2023/03/31 12:29:44;;;;;;;2.10;1.60;;;1.90;99.90;;;;;;4882947;29;20060;-65
2023/03/31 12:32:19;;;;;;;1.73;1.40;;;2.00;99.90;;;;;;4886689;29;20053;-63
2023/03/31 12:34:59;;;;;;;2.72;1.65;;;1.90;99.90;;;;;;4885330;29;20132;-63
2023/03/31 12:37:59;;;;;;;1.87;1.70;;;1.90;99.90;;;;;;4884486;29;20104;-63
2023/03/31 12:40:57;;;;;;;2.28;1.50;;;1.90;99.90;;;;;;4882998;29;20347;-62
2023/03/31 12:43:53;;;;;;;3.45;2.30;;;1.90;99.90;;;;;;4881830;29;20063;-67
2023/03/31 12:46:34;;;;;;;1.85;1.75;;;1.90;99.90;;;;;;4884581;29;20679;-66
2023/03/31 12:49:35;;;;;;;1.65;1.55;;;1.80;99.90;;;;;;4884914;29;20045;-62
2023/03/31 12:52:18;;;;;;;2.17;2.00;;;1.80;99.90;;;;;;4883470;29;20107;-67
2023/03/31 12:55:09;;;;;;;1.30;1.20;;;1.80;99.90;;;;;;4880862;29;20052;-64
2023/03/31 12:57:36;;;;;;;1.85;1.48;;;1.90;99.90;;;;;;4882667;29;20052;-69
2023/03/31 13:00:25;;;;;;;1.50;1.27;;;1.80;99.90;;;;;;4885977;29;20040;-67
2023/03/31 13:03:35;;;;;;;1.52;1.35;;;1.80;99.90;;;;;;4881217;29;20143;-68
2023/03/31 13:06:03;;;;;;;2.17;1.80;;;1.80;99.90;;;;;;4886542;29;20143;-69
2023/03/31 13:08:50;;;;;;;1.73;1.35;;;1.80;99.90;;;;;;4886432;29;20516;-66
2023/03/31 13:11:32;;;;;;;2.30;1.05;;;1.80;99.90;;;;;;4883264;29;20525;-66
2023/03/31 13:14:19;;;;;;;1.60;1.38;;;1.70;99.90;;;;;;4885845;29;20062;-67
2023/03/31 13:16:48;;;;;;;1.63;1.52;;;1.70;99.90;;;;;;4884903;29;20068;-62
2023/03/31 13:19:29;;;;;;;1.55;1.45;;;1.70;99.90;;;;;;4882895;29;20045;-63
2023/03/31 13:21:58;;;;;;;1.05;0.90;;;1.70;99.90;;;;;;4886457;29;20044;-62
2023/03/31 13:24:27;;;;;;;1.42;1.25;;;1.70;99.90;;;;;;4885489;29;20084;-63
2023/03/31 13:26:58;;;;;;;1.42;1.10;;;1.70;99.90;;;;;;4884890;29;20466;-63
2023/03/31 13:29:40;;;;;;;1.75;1.40;;;1.70;99.90;;;;;;4882393;29;20799;-69
2023/03/31 13:32:26;;;;;;;3.58;1.63;;;1.70;99.90;;;;;;4886174;29;20056;-62
2023/03/31 13:35:05;;;;;;;1.58;1.48;;;1.70;99.90;;;;;;4886644;29;20055;-64
2023/03/31 13:38:02;;;;;;;1.65;1.00;;;1.80;99.90;;;;;;4884240;29;20527;-66